Airfield :
LOGIN :

Register | Disclaimer

   EN    FR    IT 

 










Legend :    VFR   Marginal VFR   IFR   Intensive IFR   Very Intensive IFR
Visi :
Ceiling :
>= 8 km
>= 3000ft
5 to 8 km
1000 to 3000 ft
1500m to 5 km
500 to 1000 ft
800 to 1500m
200 to 500 ft
< 800m
< 200 ft
Symbols :   Thunderstorms  Fog  Heavy snow  Heavy precipitations  Wind > 20 kt
SIGMETs :     Misc.  Thunderstorms  Icing  Turbulence  Mountain Waves  Volcanic Ashes







- Airport Elevation : 1708 ft
- IATA code : SJJ


LQSA - Sarajevo

CURRENT METAR :
  • 251200Z 13009KT 070V190 9999 BKN060 18/06 Q1016 WS ALL RWY NOSIG

EXPIRED METARs :
  • 251130Z 15010KT 100V230 9999 SCT060 17/04 Q1017 WS ALL RWY NOSIG
  • 251100Z 15008KT 110V210 9999 SCT060 17/04 Q1017 NOSIG
  • 251030Z 16008KT 080V220 9999 SCT060 18/05 Q1017 NOSIG
  • 251000Z 18008KT 120V240 9999 BKN060 18/03 Q1017 WS ALL RWY NOSIG
  • 250930Z 16011KT 100V220 9999 SCT055 17/03 Q1017 WS ALL RWY NOSIG

TAF COR TAF LQSA
Valid from the 25 at 12:00 until the 26 at 12:00 UTC


251110Z 2512/2612 14008KT 9999 SCT055 TX20/2514Z TN04/2603Z
TEMPO 2512/2516 16015G25KT
TEMPO 2608/2612 16015G25KT
No reported NOTAMs for that airfield.



MET'MAP, your aeronautical weather chart ! - Copyright ORBIFLY December 2007 - Disclaimer

ORBIFLY MET'MAP TEAM :

Programming & Development : Alexandra Zaïnal
Concept & Development : Baudouin d'Aumeries
Co-Development & Prog : Marc-Olivier Méhu
Technical & hardware support : Manuel Goepfert

Contact : metmap@orbifly.com




SOURCES & CREDITS :

   NOAA